createdAt,value
2022-12-03T00:02:10.375Z,102733.94
2022-12-03T00:04:38.879Z,102731.53
2022-12-03T00:07:10.526Z,102733.47
2022-12-03T00:09:41.274Z,102728.38
2022-12-03T00:12:11.279Z,102727.44
2022-12-03T00:14:44.377Z,102726.19
2022-12-03T00:17:15.445Z,102729.34
2022-12-03T00:19:47.048Z,102730.97
2022-12-03T00:22:18.821Z,102732.41
2022-12-03T00:24:52.190Z,102742.88
2022-12-03T00:27:21.328Z,102740.31
2022-12-03T00:29:50.109Z,102731.66
2022-12-03T00:32:22.704Z,102734.34
2022-12-03T00:35:25.012Z,102727.63
2022-12-03T00:37:55.148Z,102734.72
2022-12-03T00:40:23.355Z,102733.13
2022-12-03T00:43:03.088Z,102737.31
2022-12-03T00:45:31.858Z,102722.63
2022-12-03T00:48:12.469Z,102724.44
2022-12-03T00:50:41.066Z,102719.97
2022-12-03T00:53:09.683Z,102722.47
2022-12-03T00:55:38.766Z,102719.16
2022-12-03T00:58:08.743Z,102734.63
2022-12-03T01:00:42.331Z,102727.63
2022-12-03T01:03:12.568Z,102725.03
2022-12-03T01:05:41.922Z,102729.34
2022-12-03T01:08:10.832Z,102729.34
2022-12-03T01:10:39.554Z,102727.63
2022-12-03T01:13:11.117Z,102734.50
2022-12-03T01:15:40.970Z,102731.84
2022-12-03T01:18:09.799Z,102740.56
2022-12-03T01:20:39.718Z,102735.34
2022-12-03T01:23:09.713Z,102738.78
2022-12-03T01:25:38.738Z,102742.22
2022-12-03T01:28:09.929Z,102742.16
2022-12-03T01:31:04.556Z,102745.44
2022-12-03T01:33:32.296Z,102754.94
2022-12-03T01:36:08.921Z,102751.22
2022-12-03T01:38:39.055Z,102758.25
2022-12-03T01:41:11.650Z,102762.69
2022-12-03T01:43:51.860Z,102758.31
2022-12-03T01:46:27.952Z,102752.19
2022-12-03T01:48:58.242Z,102753.00
2022-12-03T01:51:29.887Z,102740.03
2022-12-03T01:54:11.636Z,102747.69
2022-12-03T01:56:40.536Z,102753.63
2022-12-03T01:59:09.343Z,102764.81
2022-12-03T02:01:41.980Z,102763.94
2022-12-03T02:04:16.387Z,102763.81
2022-12-03T02:06:49.341Z,102763.03
2022-12-03T02:09:22.265Z,102762.16
2022-12-03T02:12:16.776Z,102759.50
2022-12-03T02:14:46.182Z,102765.44
2022-12-03T02:17:35.349Z,102754.88
2022-12-03T02:20:10.962Z,102757.44
2022-12-03T02:22:55.042Z,102766.94
2022-12-03T02:25:32.526Z,102765.97
2022-12-03T02:28:06.841Z,102770.22
2022-12-03T02:30:43.502Z,102763.41
2022-12-03T02:33:12.171Z,102758.84
2022-12-03T02:35:41.517Z,102756.13
2022-12-03T02:38:15.621Z,102754.09
2022-12-03T02:40:48.380Z,102748.59
2022-12-03T02:43:21.628Z,102749.38
2022-12-03T02:45:53.506Z,102744.84
2022-12-03T02:48:41.713Z,102744.56
2022-12-03T02:51:12.901Z,102743.25
2022-12-03T02:53:46.596Z,102746.09
2022-12-03T02:56:23.292Z,102739.59
2022-12-03T02:58:55.920Z,102740.00
2022-12-03T03:01:35.713Z,102738.50
2022-12-03T03:04:08.277Z,102751.06
2022-12-03T03:06:38.794Z,102740.25
2022-12-03T03:09:11.246Z,102743.41
2022-12-03T03:11:41.876Z,102733.75
2022-12-03T03:14:11.112Z,102740.25
2022-12-03T03:16:40.293Z,102737.59
2022-12-03T03:19:09.751Z,102733.25
2022-12-03T03:21:39.486Z,102741.97
2022-12-03T03:24:11.954Z,102727.34
2022-12-03T03:26:53.962Z,102729.09
2022-12-03T03:29:23.713Z,102732.66
2022-12-03T03:32:07.004Z,102724.16
2022-12-03T03:34:38.658Z,102722.56
2022-12-03T03:37:10.511Z,102724.06
2022-12-03T03:39:42.039Z,102723.09
2022-12-03T03:42:13.406Z,102724.06
2022-12-03T03:44:43.110Z,102725.75
2022-12-03T03:47:14.592Z,102721.13
2022-12-03T03:49:44.021Z,102739.81
2022-12-03T03:52:13.886Z,102727.19
2022-12-03T03:54:46.497Z,102729.38
2022-12-03T03:57:18.521Z,102736.59
2022-12-03T03:59:47.642Z,102739.06
2022-12-03T04:02:21.530Z,102730.69
2022-12-03T04:04:54.235Z,102727.50
2022-12-03T04:07:23.308Z,102721.97
2022-12-03T04:09:52.013Z,102721.53
2022-12-03T04:12:39.444Z,102708.91
2022-12-03T04:15:10.058Z,102710.41
2022-12-03T04:17:45.962Z,102714.25
2022-12-03T04:20:15.930Z,102705.03
2022-12-03T04:22:51.907Z,102696.75
2022-12-03T04:25:38.265Z,102702.94
2022-12-03T04:28:27.770Z,102696.19
2022-12-03T04:31:03.875Z,102686.09
2022-12-03T04:33:50.199Z,102686.97
2022-12-03T04:36:19.450Z,102696.84
2022-12-03T04:38:54.826Z,102695.25
2022-12-03T04:41:40.537Z,102699.00
2022-12-03T04:47:51.821Z,102691.44
2022-12-03T04:50:19.968Z,102687.09
2022-12-03T04:52:50.925Z,102689.66
2022-12-03T04:55:19.074Z,102694.72
2022-12-03T04:57:47.138Z,102694.38
2022-12-03T05:00:16.383Z,102699.44
2022-12-03T05:02:44.580Z,102696.75
2022-12-03T05:05:14.214Z,102687.44
2022-12-03T05:07:42.842Z,102691.78
2022-12-03T05:10:11.920Z,102685.66
2022-12-03T05:12:40.217Z,102684.69
2022-12-03T05:15:09.284Z,102685.75
2022-12-03T05:17:37.537Z,102675.38
2022-12-03T05:20:24.587Z,102672.81
2022-12-03T05:22:54.228Z,102677.34
2022-12-03T05:25:23.121Z,102662.72
2022-12-03T05:27:51.406Z,102671.38
2022-12-03T05:30:19.637Z,102672.22
2022-12-03T05:32:47.827Z,102665.28
2022-12-03T05:35:16.094Z,102664.66
2022-12-03T05:37:44.822Z,102663.00
2022-12-03T05:40:15.655Z,102655.97
2022-12-03T05:42:55.817Z,102647.44
2022-12-03T05:45:24.556Z,102648.44
2022-12-03T05:47:53.455Z,102646.66
2022-12-03T05:50:22.232Z,102645.69
2022-12-03T05:52:50.386Z,102644.81
2022-12-03T05:55:21.075Z,102637.88
2022-12-03T05:57:53.657Z,102641.44
2022-12-03T06:00:23.988Z,102636.28
2022-12-03T06:02:52.281Z,102632.59
2022-12-03T06:05:24.500Z,102639.59
2022-12-03T06:07:53.935Z,102630.81
2022-12-03T06:10:26.294Z,102630.09
2022-12-03T06:12:54.932Z,102630.09
2022-12-03T06:15:23.258Z,102631.88
2022-12-03T06:17:51.461Z,102625.94
2022-12-03T06:20:21.906Z,102616.34
2022-12-03T06:22:50.810Z,102638.69
2022-12-03T06:25:19.497Z,102630.00
2022-12-03T06:27:49.586Z,102631.75
2022-12-03T06:30:17.633Z,102623.44
2022-12-03T06:32:46.115Z,102622.53
2022-12-03T06:35:14.332Z,102618.22
2022-12-03T06:37:42.566Z,102615.66
2022-12-03T06:40:11.743Z,102615.72
2022-12-03T06:42:39.994Z,102612.38
2022-12-03T06:45:10.427Z,102603.75
2022-12-03T06:47:38.736Z,102605.53
2022-12-03T06:50:08.858Z,102608.28
2022-12-03T06:52:36.828Z,102611.84
2022-12-03T06:55:05.389Z,102609.88
2022-12-03T06:57:33.639Z,102615.09
2022-12-03T07:00:02.377Z,102610.78
2022-12-03T07:02:31.983Z,102609.88
2022-12-03T07:05:00.136Z,102611.56
2022-12-03T07:07:29.015Z,102606.44
2022-12-03T07:09:57.339Z,102609.00
2022-12-03T07:12:25.423Z,102612.44
2022-12-03T07:14:54.020Z,102607.22
2022-12-03T07:17:27.025Z,102603.75
2022-12-03T07:19:56.845Z,102605.44
2022-12-03T07:22:24.926Z,102607.13
2022-12-03T07:24:55.863Z,102607.94
2022-12-03T07:27:24.627Z,102613.06
2022-12-03T07:29:52.924Z,102608.72
2022-12-03T07:32:21.073Z,102612.19
2022-12-03T07:34:49.229Z,102606.16
2022-12-03T07:37:22.875Z,102612.09
2022-12-03T07:39:52.487Z,102606.97
2022-12-03T07:42:20.651Z,102605.25
2022-12-03T07:44:48.807Z,102605.97
2022-12-03T07:47:20.337Z,102609.53
2022-12-03T07:49:48.422Z,102605.97
2022-12-03T07:52:16.541Z,102612.97
2022-12-03T07:54:46.207Z,102603.31
2022-12-03T07:57:17.442Z,102598.25
2022-12-03T07:59:45.819Z,102600.75
2022-12-03T08:02:19.609Z,102604.19
2022-12-03T08:04:49.599Z,102597.28
2022-12-03T08:07:17.709Z,102598.19
2022-12-03T08:09:47.307Z,102602.41
2022-12-03T08:12:18.339Z,102598.06
2022-12-03T08:14:46.529Z,102595.50
2022-12-03T08:17:17.980Z,102603.31
2022-12-03T08:19:48.274Z,102597.28
2022-12-03T08:22:17.771Z,102589.56
2022-12-03T08:24:47.342Z,102596.41
2022-12-03T08:27:18.867Z,102594.56
2022-12-03T08:29:47.377Z,102585.06
2022-12-03T08:32:15.531Z,102581.69
2022-12-03T08:34:45.281Z,102589.50
2022-12-03T08:37:17.774Z,102592.13
2022-12-03T08:39:49.566Z,102598.19
2022-12-03T08:42:40.613Z,102592.84
2022-12-03T08:45:40.059Z,102593.91
2022-12-03T08:48:32.704Z,102588.78
2022-12-03T08:51:14.305Z,102586.13
2022-12-03T08:53:48.045Z,102583.63
2022-12-03T08:56:25.706Z,102585.47
2022-12-03T08:58:56.911Z,102586.47
2022-12-03T09:01:42.879Z,102582.22
2022-12-03T09:04:23.939Z,102576.38
2022-12-03T09:06:58.027Z,102581.78
2022-12-03T09:09:29.357Z,102581.84
2022-12-03T09:11:58.920Z,102577.78
2022-12-03T09:14:27.156Z,102583.88
2022-12-03T09:16:56.458Z,102574.22
2022-12-03T09:19:25.614Z,102578.41
2022-12-03T09:21:57.752Z,102578.03
2022-12-03T09:24:26.033Z,102585.75
2022-12-03T09:26:54.056Z,102580.59
2022-12-03T09:29:23.561Z,102574.53
2022-12-03T09:31:51.843Z,102576.19
2022-12-03T09:34:20.052Z,102578.69
2022-12-03T09:36:48.065Z,102580.28
2022-12-03T09:39:16.095Z,102572.81
2022-12-03T09:41:44.375Z,102574.22
2022-12-03T09:44:17.499Z,102557.72
2022-12-03T09:46:49.075Z,102566.72
2022-12-03T09:49:19.875Z,102572.16
2022-12-03T09:51:49.705Z,102567.34
2022-12-03T09:54:24.966Z,102568.59
2022-12-03T09:56:53.645Z,102563.50
2022-12-03T09:59:23.666Z,102565.47
2022-12-03T10:01:53.837Z,102567.72
2022-12-03T10:04:26.094Z,102572.16
2022-12-03T10:06:54.316Z,102566.28
2022-12-03T10:09:27.021Z,102571.53
2022-12-03T10:11:56.173Z,102567.97
2022-12-03T10:14:24.743Z,102566.03
2022-12-03T10:16:54.344Z,102574.53
2022-12-03T10:19:25.513Z,102570.13
2022-12-03T10:21:53.662Z,102575.78
2022-12-03T10:24:25.877Z,102578.28
2022-12-03T10:26:56.393Z,102572.81
2022-12-03T10:29:32.915Z,102573.41
2022-12-03T10:32:04.637Z,102574.22
2022-12-03T10:34:34.987Z,102568.91
2022-12-03T10:37:15.930Z,102572.63
2022-12-03T10:40:01.216Z,102564.63
2022-12-03T10:42:31.125Z,102562.84
2022-12-03T10:45:13.898Z,102547.91
2022-12-03T10:47:44.172Z,102545.09
2022-12-03T10:50:20.738Z,102533.75
2022-12-03T10:52:48.727Z,102531.56
2022-12-03T10:55:17.653Z,102521.72
2022-12-03T10:57:46.361Z,102536.84
2022-12-03T11:00:18.802Z,102517.44
2022-12-03T11:02:56.110Z,102524.13
2022-12-03T11:05:28.547Z,102524.28
2022-12-03T11:07:57.620Z,102517.91
2022-12-03T11:10:26.274Z,102519.25
2022-12-03T11:13:29.167Z,102518.44
2022-12-03T11:15:58.532Z,102510.41
2022-12-03T11:19:08.256Z,102509.94
2022-12-03T11:22:18.689Z,102510.25
2022-12-03T11:24:46.686Z,102509.94
2022-12-03T11:27:20.906Z,102505.50
2022-12-03T11:29:57.705Z,102495.19
2022-12-03T11:33:06.344Z,102494.72
2022-12-03T11:36:07.075Z,102494.72
2022-12-03T11:38:53.035Z,102487.69
2022-12-03T11:41:27.655Z,102479.69
2022-12-03T11:44:29.362Z,102473.97
2022-12-03T11:47:00.609Z,102477.88
2022-12-03T11:49:36.425Z,102476.63
2022-12-03T11:52:20.185Z,102472.34
2022-12-03T11:54:54.604Z,102466.34
2022-12-03T11:57:38.602Z,102465.88
2022-12-03T12:00:14.876Z,102462.09
2022-12-03T12:02:43.342Z,102451.84
2022-12-03T12:05:23.651Z,102449.66
2022-12-03T12:07:51.920Z,102441.03
2022-12-03T12:10:44.117Z,102444.91
2022-12-03T12:13:44.514Z,102431.53
2022-12-03T12:16:12.894Z,102433.78
2022-12-03T12:18:42.842Z,102433.78
2022-12-03T12:21:47.720Z,102429.69
2022-12-03T12:24:38.294Z,102430.44
2022-12-03T12:27:10.117Z,102428.03
2022-12-03T12:29:39.990Z,102420.13
2022-12-03T12:32:15.841Z,102420.06
2022-12-03T12:34:45.921Z,102414.81
2022-12-03T12:37:18.206Z,102422.34
2022-12-03T12:39:46.617Z,102413.00
2022-12-03T12:42:30.724Z,102414.53
2022-12-03T12:45:02.986Z,102407.56
2022-12-03T12:47:32.201Z,102416.44
2022-12-03T12:50:00.505Z,102414.19
2022-12-03T12:52:29.019Z,102404.78
2022-12-03T12:55:01.512Z,102389.59
2022-12-03T12:57:35.374Z,102392.81
2022-12-03T13:00:05.913Z,102392.69
2022-12-03T13:02:46.378Z,102383.00
2022-12-03T13:05:15.863Z,102387.50
2022-12-03T13:07:44.945Z,102378.00
2022-12-03T13:10:38.422Z,102381.22
2022-12-03T13:13:31.026Z,102383.97
2022-12-03T13:16:04.056Z,102379.78
2022-12-03T13:18:36.150Z,102386.31
2022-12-03T13:21:15.960Z,102375.00
2022-12-03T13:23:43.956Z,102381.81
2022-12-03T13:26:32.927Z,102379.91
2022-12-03T13:29:12.255Z,102374.75
2022-12-03T13:31:44.217Z,102358.09
2022-12-03T13:34:15.968Z,102353.25
2022-12-03T13:36:45.890Z,102344.06
2022-12-03T13:39:20.420Z,102339.84
2022-12-03T13:42:06.350Z,102336.56
2022-12-03T13:44:42.701Z,102325.53
2022-12-03T13:47:18.170Z,102317.41
2022-12-03T13:49:52.839Z,102317.88
2022-12-03T13:52:23.418Z,102313.63
2022-12-03T13:54:54.038Z,102301.47
2022-12-03T13:57:22.174Z,102295.25
2022-12-03T13:59:52.351Z,102288.28
2022-12-03T14:02:21.515Z,102280.81
2022-12-03T14:04:49.580Z,102283.19
2022-12-03T14:07:18.017Z,102272.91
2022-12-03T14:09:46.010Z,102272.38
2022-12-03T14:12:33.746Z,102271.97
2022-12-03T14:15:03.579Z,102263.00
2022-12-03T14:17:34.850Z,102265.28
2022-12-03T14:20:03.947Z,102258.38
2022-12-03T14:22:32.380Z,102255.00
2022-12-03T14:25:00.403Z,102261.66
2022-12-03T14:27:30.671Z,102263.28
2022-12-03T14:29:58.681Z,102253.56
2022-12-03T14:32:28.433Z,102250.91
2022-12-03T14:34:56.793Z,102251.53
2022-12-03T14:37:24.744Z,102240.94
2022-12-03T14:39:55.958Z,102243.44
2022-12-03T14:42:24.181Z,102241.59
2022-12-03T14:44:52.924Z,102244.81
2022-12-03T14:47:25.502Z,102242.91
2022-12-03T14:49:55.037Z,102235.88
2022-12-03T14:52:23.268Z,102237.34
2022-12-03T14:54:51.326Z,102232.03
2022-12-03T14:57:19.344Z,102244.63
2022-12-03T14:59:48.013Z,102229.06
2022-12-03T15:02:16.078Z,102233.31
2022-12-03T15:04:44.359Z,102234.22
2022-12-03T15:07:13.807Z,102231.63
2022-12-03T15:09:41.937Z,102226.31
2022-12-03T15:12:09.981Z,102225.53
2022-12-03T15:14:38.613Z,102235.19
2022-12-03T15:17:06.830Z,102235.97
2022-12-03T15:19:35.013Z,102234.22
2022-12-03T15:22:03.261Z,102233.47
2022-12-03T15:24:32.727Z,102238.38
2022-12-03T15:27:00.791Z,102238.31
2022-12-03T15:29:28.820Z,102235.50
2022-12-03T15:31:59.371Z,102234.44
2022-12-03T15:34:27.751Z,102235.97
2022-12-03T15:36:55.792Z,102231.53
2022-12-03T15:39:23.908Z,102230.59
2022-12-03T15:41:53.350Z,102226.31
2022-12-03T15:44:21.521Z,102221.91
2022-12-03T15:46:49.550Z,102220.06
2022-12-03T15:49:17.546Z,102224.94
2022-12-03T15:51:45.553Z,102219.31
2022-12-03T15:54:13.813Z,102219.78
2022-12-03T15:56:41.850Z,102219.53
2022-12-03T15:59:11.240Z,102215.97
2022-12-03T16:01:39.349Z,102214.38
2022-12-03T16:04:08.655Z,102218.88
2022-12-03T16:06:36.722Z,102213.91
2022-12-03T16:09:04.810Z,102202.94
2022-12-03T16:11:34.049Z,102205.50
2022-12-03T16:14:02.058Z,102194.34
2022-12-03T16:16:31.530Z,102198.25
2022-12-03T16:18:59.633Z,102199.72
2022-12-03T16:21:27.637Z,102196.88
2022-12-03T16:23:55.940Z,102191.66
2022-12-03T16:26:24.176Z,102191.56
2022-12-03T16:28:52.237Z,102187.34
2022-12-03T16:31:20.634Z,102188.22
2022-12-03T16:33:50.648Z,102180.44
2022-12-03T16:36:18.607Z,102184.59
2022-12-03T16:38:46.593Z,102186.97
2022-12-03T16:41:14.660Z,102179.13
2022-12-03T16:43:45.573Z,102181.59
2022-12-03T16:46:26.732Z,102170.59
2022-12-03T16:48:58.134Z,102177.75
2022-12-03T16:51:27.098Z,102165.91
2022-12-03T16:53:55.693Z,102169.59
2022-12-03T16:56:23.757Z,102157.91
2022-12-03T16:58:51.813Z,102157.38
2022-12-03T17:01:20.036Z,102154.22
2022-12-03T17:03:48.177Z,102157.13
2022-12-03T17:06:18.513Z,102150.53
2022-12-03T17:08:49.649Z,102150.53
2022-12-03T17:11:19.208Z,102139.78
2022-12-03T17:13:47.346Z,102146.75
2022-12-03T17:16:17.574Z,102142.81
2022-12-03T17:18:45.418Z,102146.97
2022-12-03T17:21:13.495Z,102141.94
2022-12-03T17:23:43.126Z,102143.78
2022-12-03T17:26:11.133Z,102143.84
2022-12-03T17:28:39.130Z,102137.59
2022-12-03T17:31:07.262Z,102134.09
2022-12-03T17:33:35.348Z,102129.72
2022-12-03T17:36:03.472Z,102130.03
2022-12-03T17:38:37.325Z,102129.06
2022-12-03T17:41:08.938Z,102120.56
2022-12-03T17:43:36.975Z,102119.84
2022-12-03T17:46:06.695Z,102114.00
2022-12-03T17:48:35.429Z,102116.91
2022-12-03T17:51:03.935Z,102108.66
2022-12-03T17:53:31.930Z,102116.88
2022-12-03T17:55:59.976Z,102118.69
2022-12-03T17:58:29.413Z,102111.47
2022-12-03T18:01:02.378Z,102118.06
2022-12-03T18:03:31.059Z,102107.59
2022-12-03T18:05:59.158Z,102105.13
2022-12-03T18:08:27.241Z,102107.59
2022-12-03T18:10:56.268Z,102103.28
2022-12-03T18:13:24.294Z,102105.69
2022-12-03T18:15:53.751Z,102095.25
2022-12-03T18:18:21.787Z,102096.31
2022-12-03T18:20:49.785Z,102089.47
2022-12-03T18:23:17.859Z,102093.66
2022-12-03T18:25:45.875Z,102088.34
2022-12-03T18:28:15.314Z,102091.72
2022-12-03T18:30:47.535Z,102088.34
2022-12-03T18:33:21.322Z,102101.59
2022-12-03T18:35:49.554Z,102101.06
2022-12-03T18:38:19.198Z,102097.69
2022-12-03T18:40:48.629Z,102104.44
2022-12-03T18:43:18.693Z,102103.06
2022-12-03T18:45:46.685Z,102105.38
2022-12-03T18:48:17.917Z,102111.22
2022-12-03T18:50:47.769Z,102099.44
2022-12-03T18:53:18.669Z,102094.94
2022-12-03T18:55:48.611Z,102090.63
2022-12-03T18:58:16.603Z,102087.28
2022-12-03T19:00:44.714Z,102087.34
2022-12-03T19:03:12.982Z,102092.47
2022-12-03T19:05:41.096Z,102098.22
2022-12-03T19:08:14.852Z,102090.09
2022-12-03T19:10:43.531Z,102085.56
2022-12-03T19:13:12.015Z,102083.97
2022-12-03T19:15:41.043Z,102074.94
2022-12-03T19:18:11.491Z,102073.09
2022-12-03T19:20:42.227Z,102078.03
2022-12-03T19:23:11.689Z,102065.94
2022-12-03T19:25:39.953Z,102061.88
2022-12-03T19:28:08.376Z,102061.50
2022-12-03T19:30:36.431Z,102068.44
2022-12-03T19:33:04.416Z,102060.59
2022-12-03T19:35:32.792Z,102060.06
2022-12-03T19:38:02.207Z,102063.75
2022-12-03T19:40:34.972Z,102064.94
2022-12-03T19:43:02.956Z,102071.19
2022-12-03T19:45:31.010Z,102073.66
2022-12-03T19:48:00.441Z,102064.47
2022-12-03T19:50:28.516Z,102060.31
2022-12-03T19:52:57.185Z,102062.97
2022-12-03T19:55:25.161Z,102071.25
2022-12-03T19:57:54.587Z,102070.13
2022-12-03T20:00:22.943Z,102064.03
2022-12-03T20:02:51.213Z,102056.25
2022-12-03T20:05:19.358Z,102058.75
2022-12-03T20:07:47.479Z,102052.00
2022-12-03T20:10:15.628Z,102047.06
2022-12-03T20:12:43.783Z,102045.38
2022-12-03T20:15:14.440Z,102045.47
2022-12-03T20:17:42.502Z,102042.81
2022-12-03T20:20:12.420Z,102040.81
2022-12-03T20:22:40.706Z,102037.34
2022-12-03T20:25:09.480Z,102034.19
2022-12-03T20:27:37.722Z,102031.88
2022-12-03T20:30:07.145Z,102021.97
2022-12-03T20:32:40.648Z,102033.44
2022-12-03T20:35:13.001Z,102049.97
2022-12-03T20:37:41.013Z,102054.75
2022-12-03T20:40:10.346Z,102057.91
2022-12-03T20:42:38.525Z,102058.38
2022-12-03T20:45:07.853Z,102049.63
2022-12-03T20:47:39.996Z,102040.72
2022-12-03T20:50:08.975Z,102043.00
2022-12-03T20:52:37.023Z,102045.72
2022-12-03T20:55:05.363Z,102052.72
2022-12-03T20:57:33.481Z,102058.72
2022-12-03T21:00:01.602Z,102046.72
2022-12-03T21:02:29.639Z,102045.72
2022-12-03T21:05:02.133Z,102047.44
2022-12-03T21:07:30.228Z,102046.44
2022-12-03T21:09:58.337Z,102053.41
2022-12-03T21:12:26.400Z,102047.59
2022-12-03T21:14:54.433Z,102046.00
2022-12-03T21:17:22.483Z,102047.78
2022-12-03T21:19:51.937Z,102047.78
2022-12-03T21:22:21.586Z,102046.91
2022-12-03T21:24:49.581Z,102039.47
2022-12-03T21:27:21.787Z,102030.81
2022-12-03T21:29:50.231Z,102025.84
2022-12-03T21:32:18.575Z,102027.72
2022-12-03T21:34:46.702Z,102029.72
2022-12-03T21:37:14.793Z,102024.00
2022-12-03T21:39:44.884Z,102024.19
2022-12-03T21:42:34.919Z,102019.13
2022-12-03T21:45:03.858Z,102019.94
2022-12-03T21:47:36.926Z,102019.66
2022-12-03T21:50:07.586Z,102017.75
2022-12-03T21:52:35.758Z,102022.88
2022-12-03T21:55:05.843Z,102004.94
2022-12-03T21:57:36.893Z,102003.97
2022-12-03T22:00:07.741Z,101992.72
2022-12-03T22:02:36.256Z,101995.31
2022-12-03T22:05:04.389Z,102001.31
2022-12-03T22:07:34.163Z,101991.16
2022-12-03T22:10:07.742Z,101987.00
2022-12-03T22:12:35.738Z,101985.25
2022-12-03T22:15:03.875Z,101993.97
2022-12-03T22:17:32.267Z,101990.88
2022-12-03T22:20:00.264Z,101985.19
2022-12-03T22:22:28.307Z,101976.63
2022-12-03T22:24:56.405Z,101978.31
2022-12-03T22:27:25.918Z,101980.88
2022-12-03T22:29:54.184Z,101977.25
2022-12-03T22:32:22.400Z,101973.56
2022-12-03T22:34:50.647Z,101980.44
2022-12-03T22:37:18.682Z,101975.06
2022-12-03T22:39:46.723Z,101967.84
2022-12-03T22:42:15.051Z,101972.50
2022-12-03T22:44:44.622Z,101967.84
2022-12-03T22:47:13.063Z,101973.59
2022-12-03T22:49:41.126Z,101979.50
2022-12-03T22:52:09.570Z,101976.16
2022-12-03T22:54:37.572Z,101972.69
2022-12-03T22:57:05.566Z,101973.69
2022-12-03T22:59:33.651Z,101975.38
2022-12-03T23:02:03.136Z,101971.84
2022-12-03T23:04:31.182Z,101974.41
2022-12-03T23:06:59.323Z,101984.19
2022-12-03T23:09:27.438Z,101972.50
2022-12-03T23:11:55.488Z,101979.13
2022-12-03T23:14:23.552Z,101971.06
2022-12-03T23:16:51.573Z,101976.63
2022-12-03T23:19:21.119Z,101967.50
2022-12-03T23:21:49.201Z,101970.25
2022-12-03T23:24:17.274Z,101968.81
2022-12-03T23:26:45.262Z,101965.56
2022-12-03T23:29:13.447Z,101962.88
2022-12-03T23:31:42.934Z,101960.44
2022-12-03T23:34:11.040Z,101967.06
2022-12-03T23:36:40.638Z,101971.38
2022-12-03T23:39:08.942Z,101961.84
2022-12-03T23:41:37.074Z,101959.13
2022-12-03T23:44:05.115Z,101958.16
2022-12-03T23:46:33.435Z,101965.66
2022-12-03T23:49:01.513Z,101958.69
2022-12-03T23:51:29.553Z,101958.63
2022-12-03T23:53:58.992Z,101948.19
2022-12-03T23:56:29.976Z,101942.09
2022-12-03T23:58:59.196Z,101947.41
